createdAt,value
2018-09-01T00:04:44.985Z,2.10
2018-09-01T00:07:20.074Z,1.80
2018-09-01T00:10:00.886Z,2.00
2018-09-01T00:12:35.773Z,1.83
2018-09-01T00:15:21.419Z,2.10
2018-09-01T00:17:56.029Z,1.93
2018-09-01T00:20:30.280Z,1.80
2018-09-01T00:23:04.207Z,1.70
2018-09-01T00:25:40.418Z,1.77
2018-09-01T00:28:14.469Z,2.00
2018-09-01T00:30:50.237Z,1.90
2018-09-01T00:33:24.868Z,1.40
2018-09-01T00:35:58.900Z,1.63
2018-09-01T00:38:38.972Z,1.93
2018-09-01T00:41:13.851Z,1.50
2018-09-01T00:43:48.017Z,1.50
2018-09-01T00:46:23.212Z,1.80
2018-09-01T00:48:58.221Z,2.10
2018-09-01T00:51:33.744Z,1.97
2018-09-01T00:54:07.829Z,1.60
2018-09-01T00:56:42.672Z,1.67
2018-09-01T00:59:16.793Z,1.47
2018-09-01T01:01:50.893Z,1.60
2018-09-01T01:04:24.975Z,1.37
2018-09-01T01:06:58.904Z,1.27
2018-09-01T01:09:32.904Z,1.73
2018-09-01T01:12:06.861Z,1.47
2018-09-01T01:14:40.769Z,1.73
2018-09-01T01:17:14.517Z,1.53
2018-09-01T01:19:48.433Z,1.60
2018-09-01T01:22:23.076Z,1.50
2018-09-01T01:24:56.988Z,1.40
2018-09-01T01:27:30.984Z,1.67
2018-09-01T01:30:05.865Z,1.97
2018-09-01T01:32:39.764Z,1.40
2018-09-01T01:35:13.922Z,1.20
2018-09-01T01:37:47.804Z,1.80
2018-09-01T01:40:21.443Z,1.60
2018-09-01T01:42:55.337Z,1.57
2018-09-01T01:45:30.213Z,1.63
2018-09-01T01:48:04.247Z,1.60
2018-09-01T01:50:38.254Z,1.40
2018-09-01T01:53:12.030Z,1.80
2018-09-01T01:55:45.859Z,1.80
2018-09-01T01:58:19.861Z,1.90
2018-09-01T02:00:53.893Z,1.50
2018-09-01T02:03:27.781Z,1.80
2018-09-01T02:06:01.601Z,1.53
2018-09-01T02:08:35.464Z,1.53
2018-09-01T02:11:09.338Z,1.90
2018-09-01T02:13:43.216Z,1.80
2018-09-01T02:16:17.034Z,1.97
2018-09-01T02:18:50.902Z,1.60
2018-09-01T02:21:24.652Z,1.80
2018-09-01T02:23:58.546Z,2.13
2018-09-01T02:26:32.345Z,1.70
2018-09-01T02:29:06.253Z,2.10
2018-09-01T02:31:40.155Z,1.77
2018-09-01T02:34:14.108Z,2.33
2018-09-01T02:36:47.863Z,1.83
2018-09-01T02:39:21.797Z,1.93
2018-09-01T02:41:55.774Z,2.23
2018-09-01T02:44:29.725Z,2.10
2018-09-01T02:47:03.929Z,2.13
2018-09-01T02:49:37.865Z,2.00
2018-09-01T02:52:11.678Z,2.60
2018-09-01T02:54:45.558Z,2.10
2018-09-01T02:57:19.509Z,2.07
2018-09-01T02:59:53.653Z,2.17
2018-09-01T03:02:32.887Z,2.17
2018-09-01T03:05:07.034Z,2.50
2018-09-01T03:07:40.730Z,2.50
2018-09-01T03:10:14.588Z,2.03
2018-09-01T03:12:48.452Z,2.20
2018-09-01T03:15:22.449Z,2.37
2018-09-01T03:17:56.879Z,2.20
2018-09-01T03:20:31.610Z,1.97
2018-09-01T03:23:06.275Z,2.53
2018-09-01T03:25:40.839Z,2.60
2018-09-01T03:28:15.743Z,2.40
2018-09-01T03:30:51.334Z,2.40
2018-09-01T03:33:26.194Z,2.73
2018-09-01T03:36:01.082Z,2.60
2018-09-01T03:38:35.800Z,2.70
2018-09-01T03:41:09.751Z,2.57
2018-09-01T03:43:43.605Z,2.60
2018-09-01T03:46:18.481Z,2.90
2018-09-01T03:48:54.013Z,2.63
2018-09-01T03:51:29.957Z,2.70
2018-09-01T03:54:03.940Z,2.60
2018-09-01T03:56:38.068Z,2.80
2018-09-01T03:59:11.854Z,2.67
2018-09-01T04:01:45.753Z,3.57
2018-09-01T04:04:19.523Z,2.93
2018-09-01T04:06:55.064Z,2.90
2018-09-01T04:09:29.585Z,3.40
2018-09-01T04:12:04.048Z,3.17
2018-09-01T04:14:38.064Z,3.43
2018-09-01T04:17:11.935Z,3.43
2018-09-01T04:19:45.809Z,3.50
2018-09-01T04:22:19.752Z,3.63
2018-09-01T04:24:53.584Z,3.73
2018-09-01T04:27:27.419Z,4.00
2018-09-01T04:30:01.304Z,3.80
2018-09-01T04:32:35.042Z,3.83
2018-09-01T04:35:08.951Z,3.40
2018-09-01T04:37:42.732Z,4.00
2018-09-01T04:40:16.613Z,3.73
2018-09-01T04:42:50.591Z,3.70
2018-09-01T04:45:24.616Z,3.90
2018-09-01T04:47:58.448Z,4.07
2018-09-01T04:50:32.256Z,3.80
2018-09-01T04:53:06.517Z,3.67
2018-09-01T04:55:40.299Z,4.10
2018-09-01T04:58:14.021Z,3.80
2018-09-01T05:00:48.055Z,4.07
2018-09-01T05:03:21.923Z,3.83
2018-09-01T05:05:55.764Z,3.80
2018-09-01T05:08:29.529Z,3.73
2018-09-01T05:11:03.341Z,3.90
2018-09-01T05:13:37.186Z,3.83
2018-09-01T05:16:11.116Z,3.60
2018-09-01T05:18:45.120Z,4.10
2018-09-01T05:21:18.934Z,3.77
2018-09-01T05:23:52.893Z,3.70
2018-09-01T05:26:26.865Z,3.53
2018-09-01T05:29:02.301Z,4.10
2018-09-01T05:31:37.329Z,3.93
2018-09-01T05:34:11.235Z,4.00
2018-09-01T05:36:45.257Z,3.87
2018-09-01T05:39:19.237Z,4.50
2018-09-01T05:41:53.061Z,3.70
2018-09-01T05:44:27.845Z,4.00
2018-09-01T05:47:02.121Z,3.97
2018-09-01T05:49:36.268Z,3.53
2018-09-01T05:52:11.034Z,3.77
2018-09-01T05:54:45.130Z,3.77
2018-09-01T05:57:19.432Z,3.97
2018-09-01T05:59:53.300Z,3.90
2018-09-01T06:02:27.210Z,3.73
2018-09-01T06:05:02.307Z,4.60
2018-09-01T06:07:36.969Z,3.67
2018-09-01T06:10:10.868Z,4.00
2018-09-01T06:12:46.318Z,3.90
2018-09-01T06:15:20.585Z,3.90
2018-09-01T06:17:55.695Z,3.83
2018-09-01T06:20:30.334Z,3.90
2018-09-01T06:23:04.892Z,3.70
2018-09-01T06:25:38.905Z,4.00
2018-09-01T06:28:15.519Z,3.90
2018-09-01T06:30:51.582Z,4.10
2018-09-01T06:33:25.475Z,4.27
2018-09-01T06:35:59.457Z,4.27
2018-09-01T06:38:33.329Z,4.07
2018-09-01T06:41:07.188Z,4.17
2018-09-01T06:43:41.118Z,3.80
2018-09-01T06:46:15.039Z,3.77
2018-09-01T06:48:49.033Z,3.70
2018-09-01T06:51:22.767Z,3.83
2018-09-01T06:53:56.702Z,3.53
2018-09-01T06:56:30.775Z,3.23
2018-09-01T06:59:04.777Z,3.47
2018-09-01T07:01:38.534Z,3.40
2018-09-01T07:04:12.189Z,3.63
2018-09-01T07:06:47.230Z,3.43
2018-09-01T07:09:21.328Z,3.63
2018-09-01T07:11:55.631Z,3.23
2018-09-01T07:14:29.846Z,3.33
2018-09-01T07:17:04.515Z,3.20
2018-09-01T07:19:38.630Z,3.43
2018-09-01T07:22:12.466Z,3.57
2018-09-01T07:24:47.419Z,3.20
2018-09-01T07:27:21.819Z,3.47
2018-09-01T07:29:55.703Z,3.20
2018-09-01T07:32:30.302Z,3.30
2018-09-01T07:35:06.147Z,3.20
2018-09-01T07:37:40.130Z,3.27
2018-09-01T07:40:14.094Z,3.70
2018-09-01T07:42:47.864Z,3.07
2018-09-01T07:45:21.831Z,3.17
2018-09-01T07:47:55.920Z,2.80
2018-09-01T07:50:30.091Z,3.10
2018-09-01T07:53:03.964Z,3.10
2018-09-01T07:55:38.220Z,3.03
2018-09-01T07:58:12.192Z,3.10
2018-09-01T08:00:53.232Z,3.00
2018-09-01T08:03:27.104Z,2.77
2018-09-01T08:06:02.398Z,2.70
2018-09-01T08:08:36.651Z,2.90
2018-09-01T08:11:10.928Z,2.80
2018-09-01T08:13:45.915Z,2.77
2018-09-01T08:16:20.003Z,2.63
2018-09-01T08:18:55.714Z,2.80
2018-09-01T08:21:30.161Z,2.50
2018-09-01T08:24:04.621Z,2.57
2018-09-01T08:26:38.606Z,2.70
2018-09-01T08:29:12.477Z,2.50
2018-09-01T08:31:46.518Z,2.77
2018-09-01T08:34:20.461Z,2.47
2018-09-01T08:36:54.287Z,2.60
2018-09-01T08:39:28.080Z,2.80
2018-09-01T08:42:02.016Z,2.80
2018-09-01T08:44:35.874Z,2.67
2018-09-01T08:47:09.824Z,2.90
2018-09-01T08:49:43.738Z,2.50
2018-09-01T08:52:17.676Z,2.90
2018-09-01T08:54:51.797Z,2.77
2018-09-01T08:57:25.913Z,3.00
2018-09-01T09:00:00.060Z,2.70
2018-09-01T09:02:33.858Z,2.83
2018-09-01T09:05:08.033Z,2.70
2018-09-01T09:07:41.856Z,2.70
2018-09-01T09:10:16.596Z,2.90
2018-09-01T09:12:50.369Z,2.63
2018-09-01T09:15:24.210Z,3.07
2018-09-01T09:17:57.885Z,3.00
2018-09-01T09:20:31.661Z,2.80
2018-09-01T09:23:05.868Z,2.60
2018-09-01T09:25:39.624Z,2.87
2018-09-01T09:28:13.353Z,3.00
2018-09-01T09:30:47.271Z,3.17
2018-09-01T09:33:21.216Z,2.80
2018-09-01T09:35:55.056Z,3.10
2018-09-01T09:38:28.881Z,3.10
2018-09-01T09:41:02.842Z,2.77
2018-09-01T09:43:36.803Z,2.87
2018-09-01T09:46:10.577Z,3.13
2018-09-01T09:48:44.548Z,2.40
2018-09-01T09:51:18.386Z,2.30
2018-09-01T09:53:52.258Z,2.63
2018-09-01T09:56:26.047Z,2.40
2018-09-01T09:58:59.936Z,2.40
2018-09-01T10:01:37.783Z,2.67
2018-09-01T10:04:12.308Z,2.80
2018-09-01T10:06:46.130Z,2.57
2018-09-01T10:09:19.949Z,2.30
2018-09-01T10:11:53.882Z,2.80
2018-09-01T10:14:27.738Z,3.07
2018-09-01T10:17:01.606Z,2.30
2018-09-01T10:19:35.464Z,2.80
2018-09-01T10:22:09.416Z,2.80
2018-09-01T10:24:43.273Z,2.60
2018-09-01T10:27:17.650Z,2.73
2018-09-01T10:29:53.244Z,2.70
2018-09-01T10:32:29.302Z,2.30
2018-09-01T10:35:04.166Z,2.60
2018-09-01T10:37:38.255Z,2.37
2018-09-01T10:40:14.257Z,2.60
2018-09-01T10:42:48.231Z,2.13
2018-09-01T10:45:22.394Z,2.50
2018-09-01T10:47:56.238Z,2.20
2018-09-01T10:50:30.040Z,2.40
2018-09-01T10:53:04.058Z,2.40
2018-09-01T10:55:37.971Z,2.40
2018-09-01T10:58:11.934Z,1.90
2018-09-01T11:00:45.893Z,2.73
2018-09-01T11:03:19.929Z,2.20
2018-09-01T11:05:53.904Z,2.20
2018-09-01T11:08:27.938Z,2.20
2018-09-01T11:11:01.962Z,2.43
2018-09-01T11:13:35.861Z,2.07
2018-09-01T11:16:09.829Z,2.40
2018-09-01T11:18:43.921Z,2.20
2018-09-01T11:21:17.786Z,2.10
2018-09-01T11:23:51.757Z,2.40
2018-09-01T11:26:25.663Z,2.47
2018-09-01T11:28:59.464Z,2.00
2018-09-01T11:31:33.220Z,2.00
2018-09-01T11:34:07.090Z,2.30
2018-09-01T11:36:40.849Z,2.00
2018-09-01T11:39:14.723Z,2.30
2018-09-01T11:41:48.647Z,1.93
2018-09-01T11:44:22.622Z,2.10
2018-09-01T11:46:56.477Z,2.00
2018-09-01T11:49:30.295Z,2.30
2018-09-01T11:52:04.071Z,2.10
2018-09-01T11:54:38.911Z,1.97
2018-09-01T11:57:12.852Z,1.77
2018-09-01T11:59:46.771Z,1.87
2018-09-01T12:02:20.593Z,2.17
2018-09-01T12:04:54.582Z,2.20
2018-09-01T12:07:28.421Z,2.00
2018-09-01T12:10:02.669Z,2.03
2018-09-01T12:12:36.999Z,2.23
2018-09-01T12:15:11.120Z,2.03
2018-09-01T12:17:45.028Z,1.97
2018-09-01T12:20:19.552Z,1.77
2018-09-01T12:22:53.609Z,1.53
2018-09-01T12:25:28.199Z,2.00
2018-09-01T12:28:02.198Z,1.87
2018-09-01T12:30:36.875Z,2.00
2018-09-01T12:33:11.604Z,1.83
2018-09-01T12:35:46.259Z,1.77
2018-09-01T12:38:20.210Z,2.10
2018-09-01T12:40:54.155Z,1.77
2018-09-01T12:43:29.435Z,1.90
2018-09-01T12:46:03.578Z,1.93
2018-09-01T12:48:38.848Z,2.07
2018-09-01T12:51:12.722Z,1.70
2018-09-01T12:53:46.642Z,1.90
2018-09-01T12:56:20.466Z,1.73
2018-09-01T12:58:54.311Z,2.13
2018-09-01T13:01:28.138Z,2.30
2018-09-01T13:04:02.101Z,2.00
2018-09-01T13:06:35.903Z,1.73
2018-09-01T13:09:11.015Z,1.90
2018-09-01T13:11:44.853Z,2.07
2018-09-01T13:14:18.624Z,1.63
2018-09-01T13:16:52.553Z,2.13
2018-09-01T13:19:26.450Z,2.10
2018-09-01T13:22:00.431Z,2.13
2018-09-01T13:24:34.248Z,2.00
2018-09-01T13:27:08.149Z,1.87
2018-09-01T13:29:41.916Z,1.87
2018-09-01T13:32:15.774Z,2.10
2018-09-01T13:34:49.849Z,1.80
2018-09-01T13:37:23.755Z,1.90
2018-09-01T13:39:57.544Z,1.90
2018-09-01T13:42:31.489Z,2.00
2018-09-01T13:45:05.854Z,1.73
2018-09-01T13:47:39.718Z,1.87
2018-09-01T13:50:13.663Z,1.87
2018-09-01T13:52:47.630Z,1.90
2018-09-01T13:55:21.540Z,2.17
2018-09-01T13:57:55.429Z,1.90
2018-09-01T14:00:29.325Z,2.03
2018-09-01T14:03:03.104Z,1.80
2018-09-01T14:05:36.951Z,1.97
2018-09-01T14:08:10.955Z,1.70
2018-09-01T14:10:44.927Z,1.90
2018-09-01T14:13:18.781Z,1.93
2018-09-01T14:15:52.592Z,1.73
2018-09-01T14:18:26.358Z,1.90
2018-09-01T14:21:00.162Z,2.07
2018-09-01T14:23:34.092Z,1.97
2018-09-01T14:26:08.807Z,1.70
2018-09-01T14:28:43.100Z,2.00
2018-09-01T14:31:17.034Z,2.00
2018-09-01T14:33:50.971Z,2.00
2018-09-01T14:36:24.903Z,1.80
2018-09-01T14:38:58.888Z,1.63
2018-09-01T14:41:32.932Z,1.80
2018-09-01T14:44:06.832Z,2.03
2018-09-01T14:46:40.846Z,1.77
2018-09-01T14:49:14.567Z,1.90
2018-09-01T14:51:48.468Z,2.03
2018-09-01T14:54:22.199Z,2.20
2018-09-01T14:56:56.213Z,1.80
2018-09-01T14:59:30.226Z,2.00
2018-09-01T15:02:04.224Z,1.83
2018-09-01T15:04:38.170Z,1.97
2018-09-01T15:07:11.923Z,2.07
2018-09-01T15:09:45.942Z,2.07
2018-09-01T15:12:19.958Z,2.00
2018-09-01T15:14:54.010Z,1.93
2018-09-01T15:17:28.106Z,1.80
2018-09-01T15:20:02.178Z,2.10
2018-09-01T15:22:35.966Z,2.30
2018-09-01T15:25:10.018Z,1.80
2018-09-01T15:27:43.768Z,2.00
2018-09-01T15:30:18.067Z,2.00
2018-09-01T15:32:52.013Z,2.47
2018-09-01T15:35:26.014Z,2.10
2018-09-01T15:37:59.905Z,1.70
2018-09-01T15:40:33.867Z,1.80
2018-09-01T15:43:08.761Z,2.10
2018-09-01T15:45:43.026Z,1.90
2018-09-01T15:48:17.197Z,1.77
2018-09-01T15:50:51.281Z,1.90
2018-09-01T15:53:25.241Z,2.00
2018-09-01T15:55:59.172Z,1.90
2018-09-01T15:58:33.344Z,1.90
2018-09-01T16:01:08.382Z,1.83
2018-09-01T16:03:42.680Z,1.90
2018-09-01T16:06:16.750Z,1.90
2018-09-01T16:08:50.859Z,1.90
2018-09-01T16:11:25.833Z,2.40
2018-09-01T16:14:00.275Z,1.93
2018-09-01T16:16:34.707Z,2.37
2018-09-01T16:19:08.703Z,1.90
2018-09-01T16:21:42.535Z,2.63
2018-09-01T16:24:16.566Z,2.13
2018-09-01T16:26:50.489Z,2.00
2018-09-01T16:29:24.359Z,2.00
2018-09-01T16:31:58.394Z,2.37
2018-09-01T16:34:32.400Z,2.20
2018-09-01T16:37:06.374Z,1.87
2018-09-01T16:39:40.189Z,1.90
2018-09-01T16:42:14.363Z,1.90
2018-09-01T16:44:48.231Z,2.40
2018-09-01T16:47:22.094Z,1.90
2018-09-01T16:49:56.235Z,2.20
2018-09-01T16:52:30.187Z,1.90
2018-09-01T16:55:04.145Z,2.37
2018-09-01T16:57:38.170Z,1.80
2018-09-01T17:00:11.979Z,1.80
2018-09-01T17:02:45.999Z,1.90
2018-09-01T17:05:19.729Z,2.10
2018-09-01T17:07:53.861Z,1.90
2018-09-01T17:10:28.009Z,2.10
2018-09-01T17:13:02.341Z,2.03
2018-09-01T17:15:36.362Z,2.03
2018-09-01T17:18:10.502Z,2.10
2018-09-01T17:20:44.495Z,1.80
2018-09-01T17:23:18.425Z,2.10
2018-09-01T17:25:52.547Z,2.10
2018-09-01T17:28:26.491Z,2.20
2018-09-01T17:31:00.395Z,2.17
2018-09-01T17:33:34.489Z,2.00
2018-09-01T17:36:08.630Z,2.07
2018-09-01T17:38:42.508Z,1.80
2018-09-01T17:41:16.562Z,2.07
2018-09-01T17:43:50.611Z,2.10
2018-09-01T17:46:24.531Z,2.03
2018-09-01T17:48:58.426Z,2.10
2018-09-01T17:51:32.463Z,2.03
2018-09-01T17:54:06.566Z,2.03
2018-09-01T17:56:40.510Z,2.30
2018-09-01T17:59:14.461Z,1.90
2018-09-01T18:01:48.598Z,2.37
2018-09-01T18:04:23.047Z,2.17
2018-09-01T18:06:56.838Z,2.10
2018-09-01T18:09:31.496Z,2.13
2018-09-01T18:12:05.536Z,2.00
2018-09-01T18:14:39.693Z,2.20
2018-09-01T18:17:13.641Z,2.30
2018-09-01T18:19:47.637Z,2.30
2018-09-01T18:22:21.727Z,2.40
2018-09-01T18:24:57.357Z,2.43
2018-09-01T18:27:31.387Z,2.50
2018-09-01T18:30:05.891Z,2.40
2018-09-01T18:32:39.928Z,2.40
2018-09-01T18:35:13.847Z,3.30
2018-09-01T18:37:47.792Z,2.40
2018-09-01T18:40:21.608Z,2.30
2018-09-01T18:42:55.589Z,2.50
2018-09-01T18:45:29.485Z,2.37
2018-09-01T18:48:03.436Z,2.33
2018-09-01T18:50:37.300Z,2.57
2018-09-01T18:53:11.351Z,2.50
2018-09-01T18:55:45.113Z,2.40
2018-09-01T18:58:19.168Z,2.73
2018-09-01T19:00:53.101Z,2.83
2018-09-01T19:03:27.248Z,2.53
2018-09-01T19:06:01.310Z,3.00
2018-09-01T19:08:35.617Z,2.70
2018-09-01T19:11:10.620Z,2.77
2018-09-01T19:13:44.678Z,2.63
2018-09-01T19:16:19.446Z,2.73
2018-09-01T19:18:54.444Z,2.70
2018-09-01T19:21:28.762Z,2.87
2018-09-01T19:24:02.745Z,2.80
2018-09-01T19:26:36.580Z,2.83
2018-09-01T19:29:10.552Z,2.67
2018-09-01T19:31:44.335Z,2.87
2018-09-01T19:34:18.271Z,3.30
2018-09-01T19:36:52.125Z,3.47
2018-09-01T19:39:25.938Z,2.60
2018-09-01T19:41:59.705Z,2.90
2018-09-01T19:44:33.545Z,2.63
2018-09-01T19:47:07.632Z,2.63
2018-09-01T19:49:42.406Z,3.07
2018-09-01T19:52:16.471Z,2.50
2018-09-01T19:54:50.300Z,2.60
2018-09-01T19:57:25.080Z,2.50
2018-09-01T19:59:59.481Z,2.90
2018-09-01T20:02:33.670Z,2.40
2018-09-01T20:05:10.755Z,2.83
2018-09-01T20:07:44.874Z,3.10
2018-09-01T20:13:49.345Z,3.47
2018-09-01T20:16:41.207Z,3.00
2018-09-01T20:22:26.811Z,3.00
2018-09-01T20:25:15.235Z,2.80
2018-09-01T20:27:53.793Z,2.87
2018-09-01T20:30:47.049Z,3.30
2018-09-01T20:36:04.076Z,2.93
2018-09-01T20:38:42.501Z,2.97
2018-09-01T20:41:17.352Z,3.37
2018-09-01T20:43:55.673Z,3.10
2018-09-01T20:46:29.646Z,3.13
2018-09-01T20:49:04.298Z,3.20
2018-09-01T20:51:38.481Z,3.03
2018-09-01T20:54:12.855Z,2.93
2018-09-01T20:56:47.132Z,3.27
2018-09-01T20:59:21.407Z,3.03
2018-09-01T21:01:56.222Z,3.23
2018-09-01T21:04:31.659Z,3.10
2018-09-01T21:07:05.887Z,2.93
2018-09-01T21:09:40.266Z,3.03
2018-09-01T21:12:14.310Z,3.40
2018-09-01T21:14:55.920Z,3.20
2018-09-01T21:17:43.549Z,3.30
2018-09-01T21:54:44.712Z,3.20
2018-09-01T22:33:07.840Z,3.20
2018-09-01T22:37:50.964Z,3.50
2018-09-01T22:43:54.020Z,3.47
2018-09-01T22:48:39.085Z,3.40
2018-09-01T22:59:50.240Z,3.10
2018-09-01T23:03:27.390Z,2.97
2018-09-01T23:06:55.432Z,2.90
2018-09-01T23:09:32.763Z,3.40
2018-09-01T23:21:59.336Z,3.10
2018-09-01T23:36:26.644Z,3.47
2018-09-01T23:41:57.559Z,3.13
2018-09-01T23:44:51.080Z,3.13
2018-09-01T23:53:37.488Z,3.03
